tititudorancea.com
Station Historical Data
Daily Summary for October 5, 2018 Units:  Metric    English   Both
« Previous Day
Next Day »
Daily Weekly Monthly Yearly Custom
  High: Low: Average:
Temperature: -17.8 °C 7.9 °C 9.5 °C
Dew Point: -17.8 °C 6 °C 7.2 °C
Humidity: Humidity % 58 % 86 %
Wind Speed: 0 km/h 3.7 km/h 15.9 km/h
Wind Gust: 0 km/h - -
Wind:- - SSW
Pressure: 0 hPa 1021.6 hPa -
Precipitation: 0 mm    
Historical Graphs
 
 
Ararat weather Find more about Weather in Ararat, AU


 



 


Tabular Data for October 5, 2018
Time Temperature Dew Point Pressure Wind Wind Speed Wind Gust Humidity Rainfall Rate (Hourly)
-17.8 °C -17.8 °C 0 hPa Calm     Humidity % 0 mm
00:04 8.5 °C 7.3 °C 1023.6 hPa South 20.4 km/h 10.3 km/h 92 % 0 mm
00:09 8.5 °C 7.3 °C 1023.6 hPa South 20.9 km/h 13.8 km/h 92 % 0 mm
00:14 8.5 °C 7.3 °C 1023.6 hPa SSE 16.1 km/h 11.7 km/h 92 % 0 mm
00:19 8.5 °C 7.3 °C 1023.6 hPa SSE 16.1 km/h 11.9 km/h 92 % 0 mm
00:24 8.5 °C 7.3 °C 1023.6 hPa South 20.4 km/h 15.8 km/h 92 % 0 mm
00:29 8.5 °C 7.3 °C 1023.2 hPa SSE 18.5 km/h 10.1 km/h 92 % 0 mm
00:34 8.5 °C 7.3 °C 1023.6 hPa South 22.2 km/h 12.7 km/h 92 % 0 mm
00:39 8.5 °C 7.3 °C 1023.6 hPa South 20.4 km/h 14 km/h 92 % 0 mm
00:44 8.6 °C 7.3 °C 1023.2 hPa South 13 km/h 10.1 km/h 92 % 0 mm
00:49 8.6 °C 7.3 °C 1023.6 hPa South 18.5 km/h 9.8 km/h 92 % 0 mm
00:54 8.6 °C 7.3 °C 1023.6 hPa North 22.2 km/h 18.7 km/h 92 % 0 mm
00:59 8.6 °C 7.4 °C 1023.2 hPa South 22.2 km/h 12.2 km/h 92 % 0 mm
01:04 8.6 °C 7.4 °C 1023.2 hPa North 25.9 km/h 15.8 km/h 92 % 0 mm
01:09 8.6 °C 7.4 °C 1023.2 hPa South 13 km/h 9.2 km/h 92 % 0 mm
01:14 8.6 °C 7.4 °C 1023.2 hPa South 20.4 km/h 8.5 km/h 92 % 0 mm
01:19 8.7 °C 7.4 °C 1023.2 hPa South 18.5 km/h 11.1 km/h 92 % 0 mm
01:24 8.7 °C 7.5 °C 1023.2 hPa SSE 16.7 km/h 10.8 km/h 92 % 0 mm
01:29 8.8 °C 7.6 °C 1023.2 hPa North 16.7 km/h 11.9 km/h 92 % 0 mm
01:34 8.8 °C 7.6 °C 1023.2 hPa North 14.5 km/h 9.3 km/h 92 % 0 mm
01:39 8.8 °C 7.6 °C 1023.2 hPa North 16.7 km/h 9.7 km/h 92 % 0 mm
01:44 8.9 °C 7.7 °C 1022.9 hPa South 14.8 km/h 10.1 km/h 92 % 0 mm
01:49 8.9 °C 7.7 °C 1022.9 hPa South 16.7 km/h 11.6 km/h 92 % 0 mm
01:54 8.9 °C 7.7 °C 1022.9 hPa South 17.7 km/h 9 km/h 92 % 0 mm
01:59 8.9 °C 7.7 °C 1022.9 hPa North 14.8 km/h 8 km/h 92 % 0 mm
02:04 9 °C 7.8 °C 1022.9 hPa SSE 13 km/h 6.9 km/h 92 % 0 mm
02:09 9 °C 7.8 °C 1022.9 hPa SSE 13 km/h 8.7 km/h 92 % 0 mm
02:14 9 °C 7.8 °C 1022.9 hPa North 14.8 km/h 14.6 km/h 92 % 0 mm
02:19 9 °C 7.8 °C 1022.9 hPa SSE 16.7 km/h 10 km/h 92 % 0 mm
02:24 9 °C 7.8 °C 1022.9 hPa SSE 18.5 km/h 8.9 km/h 92 % 0 mm
02:29 9 °C 7.8 °C 1022.9 hPa SSE 22.2 km/h 13.5 km/h 92 % 0 mm
02:34 9 °C 7.9 °C 1022.9 hPa South 16.7 km/h 11.9 km/h 93 % 0 mm
02:39 9 °C 7.9 °C 1022.9 hPa SSE 16.7 km/h 10.5 km/h 93 % 0 mm
02:44 9 °C 7.9 °C 1022.6 hPa SSE 18.5 km/h 12.2 km/h 93 % 0 mm
02:49 9 °C 7.9 °C 1022.6 hPa South 13 km/h 10.5 km/h 93 % 0 mm
02:54 9.1 °C 8 °C 1022.9 hPa South 16.7 km/h 7.6 km/h 93 % 0 mm
02:59 9.1 °C 8 °C 1022.9 hPa North 18.5 km/h 10.6 km/h 93 % 0 mm
03:04 9.1 °C 8.1 °C 1022.9 hPa SSE 13 km/h 7.4 km/h 93 % 0 mm
03:09 9.1 °C 8.1 °C 1022.6 hPa SSE 18.5 km/h 11.1 km/h 93 % 0 mm
03:14 9.1 °C 8.1 °C 1022.6 hPa SSE 16.7 km/h 9.8 km/h 93 % 0 mm
03:19 9.1 °C 8.1 °C 1022.6 hPa South 16.7 km/h 14.2 km/h 93 % 0 mm
03:24 9.1 °C 8 °C 1022.6 hPa South 14.8 km/h 8.9 km/h 93 % 0 mm
03:29 9.1 °C 8 °C 1022.6 hPa South 19.3 km/h 13.2 km/h 93 % 0 mm
03:34 9 °C 7.9 °C 1022.6 hPa North 18.5 km/h 14.2 km/h 93 % 0 mm
03:39 9 °C 7.9 °C 1022.6 hPa North 27.8 km/h 15.3 km/h 93 % 0 mm
03:44 9 °C 7.9 °C 1022.6 hPa North 20.4 km/h 12.1 km/h 93 % 0 mm
03:49 8.9 °C 7.9 °C 1022.6 hPa North 22.2 km/h 11.3 km/h 93 % 0 mm
03:54 8.9 °C 7.9 °C 1022.6 hPa South 22.2 km/h 11.9 km/h 93 % 0 mm
03:59 8.9 °C 7.8 °C 1022.6 hPa North 16.7 km/h 11.4 km/h 93 % 0 mm
04:04 8.9 °C 7.9 °C 1022.6 hPa North 13 km/h 8.9 km/h 93 % 0 mm
04:09 8.9 °C 7.9 °C 1022.6 hPa South 11.3 km/h 8.7 km/h 93 % 0 mm
04:14 8.9 °C 7.7 °C 1022.6 hPa SSE 22.2 km/h 12.7 km/h 92 % 0 mm
04:19 8.8 °C 7.6 °C 1022.6 hPa SSE 27.8 km/h 15.1 km/h 92 % 0 mm
04:24 8.7 °C 7.5 °C 1022.9 hPa SSE 17.7 km/h 14.2 km/h 92 % 0 mm
04:29 8.8 °C 7.6 °C 1022.9 hPa SSE 18.5 km/h 12.1 km/h 92 % 0 mm
04:34 8.8 °C 7.4 °C 1022.9 hPa South 27.4 km/h 13.8 km/h 91 % 0 mm
04:39 8.8 °C 7.4 °C 1022.9 hPa South 31.5 km/h 15.1 km/h 91 % 0 mm
04:44 8.8 °C 7.4 °C 1022.9 hPa South 16.7 km/h 6.6 km/h 91 % 0 mm
04:49 8.8 °C 7.4 °C 1022.9 hPa South 18.5 km/h 11.4 km/h 91 % 0 mm
04:54 8.7 °C 7.3 °C 1022.9 hPa North 18.5 km/h 8 km/h 91 % 0 mm
04:59 8.8 °C 7.4 °C 1022.9 hPa South 20.4 km/h 14.5 km/h 91 % 0 mm
05:04 8.8 °C 7.4 °C 1022.9 hPa North 18.5 km/h 13.5 km/h 91 % 0 mm
05:09 8.7 °C 7.3 °C 1022.9 hPa North 20.4 km/h 15.8 km/h 91 % 0 mm
05:14 8.7 °C 7.3 °C 1023.2 hPa South 22.2 km/h 13.8 km/h 91 % 0 mm
05:19 8.6 °C 7.2 °C 1023.2 hPa South 24.1 km/h 15.1 km/h 91 % 0 mm
05:24 8.5 °C 7.3 °C 1023.2 hPa South 17.7 km/h 11.3 km/h 92 % 0 mm
05:29 8.4 °C 7.1 °C 1023.2 hPa South 22.2 km/h 14.6 km/h 91 % 0 mm
05:34 8.4 °C 7 °C 1023.2 hPa South 24.1 km/h 18.7 km/h 91 % 0 mm
05:39 8.3 °C 7.1 °C 1023.2 hPa SSE 20.4 km/h 13.5 km/h 92 % 0 mm
05:44 8.2 °C 7 °C 1023.6 hPa South 18.5 km/h 9.7 km/h 92 % 0 mm
05:49 8.2 °C 6.8 °C 1023.6 hPa North 22.2 km/h 9 km/h 91 % 0 mm
05:54 8.1 °C 6.9 °C 1023.6 hPa South 18.5 km/h 16.9 km/h 92 % 0 mm
05:59 8 °C 6.6 °C 1023.6 hPa South 17.7 km/h 13.2 km/h 91 % 0 mm
06:04 7.9 °C 6.7 °C 1023.6 hPa SSE 18.5 km/h 15.6 km/h 92 % 0 mm
06:09 7.9 °C 6.7 °C 1023.6 hPa North 14.8 km/h 12.6 km/h 92 % 0 mm
06:14 8 °C 6.8 °C 1023.9 hPa South 18.5 km/h 10 km/h 92 % 0 mm
06:19 8 °C 6.8 °C 1023.9 hPa SSE 20.4 km/h 15.4 km/h 92 % 0 mm
06:24 8.1 °C 6.8 °C 1023.9 hPa North 22.2 km/h 10.3 km/h 92 % 0 mm
06:29 8.2 °C 6.9 °C 1023.9 hPa SSE 31.5 km/h 14.2 km/h 92 % 0 mm
06:34 8.2 °C 6.9 °C 1024.3 hPa South 16.7 km/h 13.7 km/h 92 % 0 mm
06:39 8.3 °C 7.1 °C 1024.3 hPa SSE 18.5 km/h 12.7 km/h 92 % 0 mm
06:44 8.3 °C 6.9 °C 1024.3 hPa South 18.5 km/h 10.9 km/h 91 % 0 mm
06:49 8.4 °C 7.1 °C 1024.3 hPa SE 18.5 km/h 10.1 km/h 91 % 0 mm
06:54 8.5 °C 7.1 °C 1024.3 hPa South 14.8 km/h 8.9 km/h 91 % 0 mm
06:59 8.6 °C 7 °C 1024.3 hPa SSE 25.9 km/h 15.1 km/h 90 % 0 mm
07:04 8.7 °C 7.1 °C 1024.3 hPa South 24.1 km/h 9.2 km/h 90 % 0 mm
07:09 8.8 °C 7.3 °C 1024.6 hPa SSE 18.5 km/h 15.3 km/h 90 % 0 mm
07:14 9 °C 7.4 °C 1024.6 hPa South 18.5 km/h 14.6 km/h 90 % 0 mm
07:19 9.2 °C 7.4 °C 1024.6 hPa SSE 25.9 km/h 14.5 km/h 89 % 0 mm
07:24 9.4 °C 7.7 °C 1024.6 hPa South 20.4 km/h 13.4 km/h 89 % 0 mm
07:29 9.4 °C 7.6 °C 1024.6 hPa SE 29 km/h 17.9 km/h 88 % 0 mm
07:34 9.4 °C 7.3 °C 1024.6 hPa SE 25.9 km/h 17.5 km/h 87 % 0 mm
07:39 9.4 °C 7.4 °C 1024.9 hPa SSE 24.1 km/h 16.4 km/h 87 % 0 mm
07:44 9.5 °C 7.4 °C 1024.9 hPa SE 18.5 km/h 17.7 km/h 87 % 0 mm
07:49 9.6 °C 7.3 °C 1024.9 hPa SSE 29.6 km/h 12.6 km/h 86 % 0 mm
07:54 9.6 °C 7.4 °C 1024.9 hPa North 22.2 km/h 11.7 km/h 86 % 0 mm
07:59 9.7 °C 7.4 °C 1024.9 hPa SSE 22.2 km/h 16.7 km/h 86 % 0 mm
08:04 9.8 °C 7.6 °C 1024.9 hPa North 20.4 km/h 17.5 km/h 86 % 0 mm
08:09 9.9 °C 7.6 °C 1024.9 hPa SSE 24.1 km/h 13.4 km/h 85 % 0 mm
08:14 10.1 °C 7.6 °C 1025.3 hPa SSE 31.5 km/h 17.2 km/h 84 % 0 mm
08:19 10.2 °C 7.4 °C 1025.3 hPa SSE 18.5 km/h 16.7 km/h 83 % 0 mm
08:24 10.4 °C 7.6 °C 1025.3 hPa SE 27.4 km/h 20.8 km/h 83 % 0 mm
08:29 10.6 °C 7.6 °C 1025.3 hPa SE 22.2 km/h 17.7 km/h 82 % 0 mm
08:34 10.8 °C 7.7 °C 1025.3 hPa South 18.5 km/h 12.6 km/h 81 % 0 mm
08:39 10.8 °C 7.4 °C 1025.6 hPa SSE 20.4 km/h 15 km/h 80 % 0 mm
08:42 10.8 °C 7.5 °C 1025.6 hPa SSE 27.8 km/h 11.6 km/h 80 % 0 mm
17:39 16.6 °C 8.3 °C 1021.6 hPa SSE 27.8 km/h 27.8 km/h 58 % 0 mm
17:44 16.4 °C 8.3 °C 1021.6 hPa SE 18.5 km/h 10.1 km/h 59 % 0 mm
17:49 16.2 °C 8.4 °C 1021.6 hPa SE 16.1 km/h 8.5 km/h 60 % 0 mm
17:54 16 °C 8.5 °C 1021.6 hPa SSE 12.9 km/h 8 km/h 61 % 0 mm
17:59 15.8 °C 8.5 °C 1021.6 hPa SSE 13 km/h 6.6 km/h 62 % 0 mm
18:04 15.5 °C 8.5 °C 1021.6 hPa SSE 18.5 km/h 14.6 km/h 63 % 0 mm
18:09 15.2 °C 8.4 °C 1021.6 hPa SSE 14.8 km/h 11.6 km/h 64 % 0 mm
18:14 14.9 °C 8.4 °C 1021.6 hPa SSE 18.5 km/h 9 km/h 65 % 0 mm
18:19 14.6 °C 8.3 °C 1021.6 hPa SSE 13 km/h 8.7 km/h 66 % 0 mm
18:24 14.3 °C 8.2 °C 1021.6 hPa SSE 12.9 km/h 6.9 km/h 67 % 0 mm
18:29 14 °C 8.2 °C 1021.6 hPa SSE 9.3 km/h 8.5 km/h 68 % 0 mm
18:34 13.7 °C 8.1 °C 1021.6 hPa SSE 11.3 km/h 6.6 km/h 69 % 0 mm
18:39 13.5 °C 8.1 °C 1021.9 hPa SSE 13 km/h 9 km/h 70 % 0 mm
18:44 13.3 °C 8.2 °C 1021.9 hPa SSE 11.1 km/h 7.2 km/h 71 % 0 mm
18:49 13.1 °C 7.9 °C 1021.9 hPa SSE 9.3 km/h 7.7 km/h 71 % 0 mm
18:54 12.9 °C 7.9 °C 1021.9 hPa SSE 11.1 km/h 9.2 km/h 72 % 0 mm
18:59 12.7 °C 8 °C 1021.9 hPa SSE 14.5 km/h 9.3 km/h 73 % 0 mm
19:04 12.5 °C 7.8 °C 1021.9 hPa SSE 11.3 km/h 8.7 km/h 73 % 0 mm
19:09 12.3 °C 7.6 °C 1021.9 hPa SSE 13 km/h 8.4 km/h 73 % 0 mm
19:14 12.2 °C 7.7 °C 1021.9 hPa SSE 11.3 km/h 7.7 km/h 74 % 0 mm
19:19 12 °C 7.7 °C 1021.9 hPa SSE 11.1 km/h 8.4 km/h 75 % 0 mm
19:24 11.8 °C 7.7 °C 1021.9 hPa SSE 11.1 km/h 9.2 km/h 76 % 0 mm
19:29 11.7 °C 7.6 °C 1022.2 hPa SSE 13 km/h 9.3 km/h 76 % 0 mm
19:34 11.5 °C 7.6 °C 1022.2 hPa SSE 11.3 km/h 10 km/h 77 % 0 mm
19:39 11.3 °C 7.6 °C 1022.2 hPa SSE 11.1 km/h 8 km/h 78 % 0 mm
19:44 11.2 °C 7.7 °C 1022.2 hPa SSE 7.4 km/h 6 km/h 79 % 0 mm
19:49 11 °C 7.5 °C 1022.2 hPa SSE 11.1 km/h 6.8 km/h 79 % 0 mm
19:54 10.8 °C 7.5 °C 1022.2 hPa SSE 9.3 km/h 9.8 km/h 80 % 0 mm
19:59 10.7 °C 7.4 °C 1022.2 hPa SSE 11.3 km/h 8.5 km/h 80 % 0 mm
20:04 10.6 °C 7.4 °C 1022.2 hPa SSE 18.5 km/h 13.5 km/h 81 % 0 mm
20:09 10.4 °C 7.3 °C 1022.2 hPa SSE 13 km/h 9.8 km/h 81 % 0 mm
20:14 10.3 °C 7.4 °C 1022.2 hPa SSE 11.1 km/h 7.9 km/h 82 % 0 mm
20:19 10.2 °C 7.3 °C 1022.2 hPa SSE 16.1 km/h 10.3 km/h 82 % 0 mm
20:24 10.2 °C 7.2 °C 1022.2 hPa SSE 16.1 km/h 10.9 km/h 82 % 0 mm
20:29 10.1 °C 7.3 °C 1022.2 hPa South 16.7 km/h 9.5 km/h 83 % 0 mm
20:34 10 °C 7.1 °C 1022.2 hPa SSE 7.4 km/h 6.9 km/h 82 % 0 mm
20:39 9.9 °C 7.2 °C 1022.6 hPa North 16.7 km/h 6.3 km/h 83 % 0 mm
20:44 9.9 °C 7.1 °C 1022.6 hPa SSE 14.8 km/h 7.6 km/h 83 % 0 mm
20:49 9.8 °C 7 °C 1022.6 hPa SSE 11.1 km/h 7.9 km/h 83 % 0 mm
20:54 9.7 °C 7 °C 1022.6 hPa North 13 km/h 9.2 km/h 83 % 0 mm
20:59 9.7 °C 7.1 °C 1022.6 hPa South 9.3 km/h 4.7 km/h 84 % 0 mm
21:04 9.6 °C 7.1 °C 1022.6 hPa North 9.7 km/h 7.2 km/h 84 % 0 mm
21:09 9.6 °C 7 °C 1022.6 hPa SSE 11.3 km/h 6.9 km/h 84 % 0 mm
21:14 9.5 °C 6.9 °C 1022.9 hPa SSE 9.3 km/h 7.4 km/h 84 % 0 mm
21:19 9.4 °C 6.9 °C 1022.6 hPa South 11.1 km/h 8.7 km/h 84 % 0 mm
21:24 9.4 °C 7 °C 1022.6 hPa South 11.1 km/h 8.5 km/h 85 % 0 mm
21:29 9.4 °C 7 °C 1022.9 hPa South 13 km/h 9.3 km/h 85 % 0 mm
21:34 9.4 °C 7 °C 1022.6 hPa SSE 7.4 km/h 4.8 km/h 85 % 0 mm
21:39 9.3 °C 6.7 °C 1022.6 hPa SSE 13 km/h 6.8 km/h 84 % 0 mm
21:44 9.2 °C 6.8 °C 1022.6 hPa South 8 km/h 7.7 km/h 85 % 0 mm
21:49 9.1 °C 6.7 °C 1022.6 hPa SSE 11.1 km/h 7.6 km/h 85 % 0 mm
21:54 9.1 °C 6.7 °C 1022.6 hPa South 11.3 km/h 7.9 km/h 85 % 0 mm
21:59 9 °C 6.6 °C 1022.6 hPa South 8 km/h 6.8 km/h 85 % 0 mm
22:04 8.9 °C 6.6 °C 1022.6 hPa North 5.6 km/h 3.5 km/h 85 % 0 mm
22:09 8.9 °C 6.7 °C 1022.6 hPa SSE 7.4 km/h 5.5 km/h 86 % 0 mm
22:14 8.9 °C 6.7 °C 1022.6 hPa North 7.4 km/h 6.1 km/h 86 % 0 mm
22:19 8.9 °C 6.7 °C 1022.6 hPa North 9.3 km/h 7.1 km/h 86 % 0 mm
22:24 8.8 °C 6.6 °C 1022.6 hPa North 7.4 km/h 5.3 km/h 86 % 0 mm
22:29 8.9 °C 6.7 °C 1022.6 hPa South 5.6 km/h 2.9 km/h 86 % 0 mm
22:34 8.8 °C 6.6 °C 1022.6 hPa North 9.7 km/h 7.1 km/h 86 % 0 mm
22:39 8.8 °C 6.6 °C 1022.6 hPa South 9.3 km/h 4.3 km/h 86 % 0 mm
22:44 8.8 °C 6.6 °C 1022.6 hPa South 9.7 km/h 6.8 km/h 86 % 0 mm
22:49 8.7 °C 6.4 °C 1022.6 hPa South 9.3 km/h 4.8 km/h 86 % 0 mm
22:54 8.6 °C 6.4 °C 1022.6 hPa SSE 7.4 km/h 5.5 km/h 86 % 0 mm
22:59 8.6 °C 6.5 °C 1022.6 hPa South 8 km/h 7.2 km/h 87 % 0 mm
23:04 8.5 °C 6.4 °C 1022.6 hPa South 8 km/h 6.6 km/h 87 % 0 mm
23:09 8.4 °C 6.4 °C 1022.6 hPa South 7.4 km/h 3.1 km/h 87 % 0 mm
23:14 8.4 °C 6.4 °C 1022.2 hPa South 7.4 km/h 5.3 km/h 87 % 0 mm
23:19 8.4 °C 6.3 °C 1022.2 hPa North 5.6 km/h 3.1 km/h 87 % 0 mm
23:24 8.3 °C 6.3 °C 1022.6 hPa South 3.7 km/h 1.9 km/h 87 % 0 mm
23:29 8.3 °C 6.2 °C 1022.2 hPa North 5.6 km/h 2.6 km/h 87 % 0 mm
23:34 8.2 °C 6.2 °C 1022.2 hPa South 3.7 km/h 1.8 km/h 87 % 0 mm
23:39 8.1 °C 6.2 °C 1022.2 hPa South 3.7 km/h 2.6 km/h 88 % 0 mm
23:44 8.1 °C 6.2 °C 1022.2 hPa South 8 km/h 5.6 km/h 88 % 0 mm
23:49 8.1 °C 6.2 °C 1022.2 hPa South 6.4 km/h 2.4 km/h 88 % 0 mm
23:54 8.1 °C 6.2 °C 1022.2 hPa SSE 5.6 km/h 2.7 km/h 88 % 0 mm
23:59 7.9 °C 6 °C 1022.2 hPa SSE 5.6 km/h 1.8 km/h 88 % 0 mm
Ararat Weather
Compliments of Weather Underground - 1.75 mb
Click here to send mail.


ABOUT

Live weather data from Ararat, Victoria, Australia, 3377
Data uploaded from Cumulus every 5 minutes to Weather Underground.
This site then downloads the raw data for formatting and display.
Metric and imperial data can be displayed. Graphs and historical data available.
Includes Sun and Moon times and rain image live from BOM.

Check out Ararat Weather on Facebook, Twitter and Google +

Help support ongoing costs by checking out the ads





Follow @AraratWeather